createdAt,value
2024-05-09T00:04:04.434Z,99097.28
2024-05-09T00:09:09.197Z,99099.84
2024-05-09T00:14:13.986Z,99099.03
2024-05-09T00:19:18.859Z,99095.53
2024-05-09T00:24:23.741Z,99093.75
2024-05-09T00:29:28.640Z,99084.16
2024-05-09T00:34:33.544Z,99078.09
2024-05-09T00:39:38.222Z,99079.91
2024-05-09T00:44:42.951Z,99071.28
2024-05-09T00:49:49.092Z,99072.19
2024-05-09T00:54:54.060Z,99088.63
2024-05-09T00:59:59.303Z,99084.16
2024-05-09T01:05:05.082Z,99086.78
2024-05-09T01:10:14.319Z,99082.41
2024-05-09T01:15:25.735Z,99080.00
2024-05-09T01:20:39.681Z,99087.75
2024-05-09T01:25:48.287Z,99087.63
2024-05-09T01:30:53.042Z,99085.03
2024-05-09T01:35:57.748Z,99086.72
2024-05-09T01:41:02.831Z,99095.47
2024-05-09T01:46:07.702Z,99093.88
2024-05-09T01:51:12.961Z,99089.44
2024-05-09T01:56:17.820Z,99078.97
2024-05-09T02:01:22.646Z,99081.69
2024-05-09T02:06:27.373Z,99074.69
2024-05-09T02:11:32.223Z,99073.09
2024-05-09T02:16:36.981Z,99065.94
2024-05-09T02:21:41.749Z,99066.78
2024-05-09T02:26:46.416Z,99066.84
2024-05-09T02:31:51.189Z,99059.75
2024-05-09T02:36:56.579Z,99061.41
2024-05-09T02:42:01.277Z,99052.78
2024-05-09T02:47:06.124Z,99059.63
2024-05-09T02:52:11.011Z,99052.78
2024-05-09T02:57:15.832Z,99058.88
2024-05-09T03:02:20.622Z,99062.31
2024-05-09T03:07:25.348Z,99065.78
2024-05-09T03:12:31.353Z,99070.09
2024-05-09T03:17:36.512Z,99066.72
2024-05-09T03:22:41.360Z,99073.66
2024-05-09T03:27:46.047Z,99067.66
2024-05-09T03:32:50.904Z,99068.47
2024-05-09T03:37:55.731Z,99065.84
2024-05-09T03:43:00.444Z,99061.38
2024-05-09T03:48:05.341Z,99065.00
2024-05-09T03:53:13.755Z,99055.38
2024-05-09T03:58:19.229Z,99060.41
2024-05-09T04:03:24.173Z,99069.13
2024-05-09T04:08:30.583Z,99073.47
2024-05-09T04:13:35.420Z,99082.97
2024-05-09T04:18:41.032Z,99083.00
2024-05-09T04:23:45.842Z,99088.94
2024-05-09T04:28:50.609Z,99095.84
2024-05-09T04:33:55.457Z,99100.16
2024-05-09T04:39:00.314Z,99095.78
2024-05-09T04:44:05.062Z,99093.16
2024-05-09T04:49:09.967Z,99101.88
2024-05-09T04:54:26.071Z,99086.06
2024-05-09T04:59:39.186Z,99091.16
2024-05-09T05:04:43.995Z,99096.31
2024-05-09T05:09:48.798Z,99097.34
2024-05-09T05:14:53.504Z,99108.69
2024-05-09T05:19:58.806Z,99115.47
2024-05-09T05:25:03.511Z,99107.53
2024-05-09T05:30:14.670Z,99108.59
2024-05-09T05:35:22.618Z,99110.47
2024-05-09T05:40:33.477Z,99114.66
2024-05-09T05:45:41.590Z,99115.53
2024-05-09T05:50:47.139Z,99114.59
2024-05-09T05:55:52.035Z,99113.84
2024-05-09T06:00:56.806Z,99122.56
2024-05-09T06:06:05.673Z,99118.19
2024-05-09T06:11:10.543Z,99116.59
2024-05-09T06:16:15.300Z,99117.41
2024-05-09T06:21:20.280Z,99106.53
2024-05-09T06:26:25.008Z,99117.88
2024-05-09T06:31:29.917Z,99123.25
2024-05-09T06:36:34.583Z,99116.03
2024-05-09T06:41:39.281Z,99116.63
2024-05-09T06:46:45.566Z,99129.97
2024-05-09T06:51:50.389Z,99134.44
2024-05-09T06:56:55.096Z,99142.31
2024-05-09T07:01:59.839Z,99136.69
2024-05-09T07:07:04.524Z,99142.78
2024-05-09T07:12:09.585Z,99148.91
2024-05-09T07:17:14.631Z,99154.28
2024-05-09T07:22:19.411Z,99155.44
2024-05-09T07:27:27.906Z,99165.75
2024-05-09T07:32:32.686Z,99167.56
2024-05-09T07:37:37.506Z,99162.94
2024-05-09T07:42:42.283Z,99168.44
2024-05-09T07:49:13.059Z,99169.44
2024-05-09T07:53:37.174Z,99171.06
2024-05-09T07:58:36.568Z,99161.31
2024-05-09T08:03:41.630Z,99155.94
2024-05-09T08:08:48.465Z,99157.47
2024-05-09T08:13:53.147Z,99154.00
2024-05-09T08:18:58.142Z,99160.00
2024-05-09T08:24:02.952Z,99157.34
2024-05-09T08:29:07.672Z,99162.50
2024-05-09T08:34:12.608Z,99166.63
2024-05-09T08:39:17.368Z,99164.09
2024-05-09T08:44:23.359Z,99159.72
2024-05-09T08:49:29.319Z,99160.19
2024-05-09T08:54:34.107Z,99160.31
2024-05-09T08:59:39.324Z,99158.63
2024-05-09T09:04:50.821Z,99160.34
2024-05-09T09:09:55.695Z,99174.44
2024-05-09T09:15:00.457Z,99160.63
2024-05-09T09:20:07.072Z,99163.31
2024-05-09T09:25:16.033Z,99173.78
2024-05-09T09:30:34.040Z,99166.78
2024-05-09T09:35:43.125Z,99174.50
2024-05-09T09:40:50.054Z,99178.16
2024-05-09T09:45:56.087Z,99175.31
2024-05-09T09:51:01.289Z,99175.38
2024-05-09T09:56:06.407Z,99163.94
2024-05-09T10:01:11.198Z,99163.13
2024-05-09T10:06:17.106Z,99162.44
2024-05-09T10:11:23.619Z,99163.50
2024-05-09T10:16:33.994Z,99152.88
2024-05-09T10:21:49.552Z,99158.28
2024-05-09T10:26:56.114Z,99164.31
2024-05-09T10:32:02.710Z,99162.44
2024-05-09T10:37:07.516Z,99163.47
2024-05-09T10:42:12.875Z,99156.44
2024-05-09T10:47:18.615Z,99159.72
2024-05-09T10:52:24.093Z,99158.88
2024-05-09T10:57:28.902Z,99155.38
2024-05-09T11:02:34.724Z,99146.13
2024-05-09T11:07:39.701Z,99144.53
2024-05-09T11:12:47.766Z,99149.75
2024-05-09T11:17:52.621Z,99151.97
2024-05-09T11:22:57.447Z,99151.22
2024-05-09T11:28:03.575Z,99157.69
2024-05-09T11:33:08.725Z,99153.44
2024-05-09T11:38:13.490Z,99156.09
2024-05-09T11:43:21.202Z,99157.72
2024-05-09T11:48:27.404Z,99153.28
2024-05-09T11:53:32.413Z,99151.44
2024-05-09T11:58:39.504Z,99143.00
2024-05-09T12:03:44.417Z,99140.22
2024-05-09T12:08:49.563Z,99135.03
2024-05-09T12:13:54.264Z,99118.50
2024-05-09T12:18:59.296Z,99118.59
2024-05-09T12:24:04.161Z,99118.63
2024-05-09T12:29:08.930Z,99114.28
2024-05-09T12:34:13.747Z,99112.44
2024-05-09T12:39:18.614Z,99115.00
2024-05-09T12:44:23.474Z,99110.53
2024-05-09T12:49:28.398Z,99111.50
2024-05-09T12:54:33.773Z,99119.47
2024-05-09T12:59:38.569Z,99118.59
2024-05-09T13:04:43.330Z,99108.13
2024-05-09T13:09:48.158Z,99103.78
2024-05-09T13:14:52.856Z,99101.25
2024-05-09T13:19:57.729Z,99095.16
2024-05-09T13:25:02.478Z,99092.38
2024-05-09T13:30:14.542Z,99089.81
2024-05-09T13:35:22.570Z,99087.94
2024-05-09T13:40:33.082Z,99087.94
2024-05-09T13:45:40.371Z,99089.66
2024-05-09T13:50:45.344Z,99090.47
2024-05-09T13:55:50.518Z,99085.09
2024-05-09T14:00:55.392Z,99098.16
2024-05-09T14:06:00.293Z,99093.69
2024-05-09T14:11:05.115Z,99097.13
2024-05-09T14:16:10.388Z,99089.19
2024-05-09T14:21:15.206Z,99098.69
2024-05-09T14:26:20.194Z,99092.44
2024-05-09T14:31:25.178Z,99090.81
2024-05-09T14:36:29.951Z,99088.06
2024-05-09T14:41:34.626Z,99089.81
2024-05-09T14:46:39.335Z,99095.19
2024-05-09T14:51:50.376Z,99103.06
2024-05-09T14:56:55.263Z,99101.22
2024-05-09T15:02:00.093Z,99094.56
2024-05-09T15:07:05.084Z,99112.09
2024-05-09T15:12:10.195Z,99100.81
2024-05-09T15:17:15.042Z,99098.25
2024-05-09T15:22:20.555Z,99097.31
2024-05-09T15:27:25.406Z,99099.03
2024-05-09T15:32:30.189Z,99093.16
2024-05-09T15:37:35.295Z,99103.56
2024-05-09T15:42:42.730Z,99099.19
2024-05-09T15:47:48.260Z,99102.78
2024-05-09T15:52:53.117Z,99107.00
2024-05-09T15:57:57.942Z,99104.50
2024-05-09T16:03:02.697Z,99111.34
2024-05-09T16:08:08.743Z,99114.72
2024-05-09T16:13:16.649Z,99121.69
2024-05-09T16:18:22.489Z,99117.47
2024-05-09T16:23:27.283Z,99118.41
2024-05-09T16:28:32.135Z,99119.47
2024-05-09T16:33:37.206Z,99121.22
2024-05-09T16:38:43.183Z,99129.94
2024-05-09T16:43:47.942Z,99137.72
2024-05-09T16:48:53.355Z,99130.75
2024-05-09T16:53:58.611Z,99137.81
2024-05-09T16:59:03.475Z,99136.09
2024-05-09T17:04:08.506Z,99137.84
2024-05-09T17:09:15.679Z,99139.59
2024-05-09T17:14:24.246Z,99139.53
2024-05-09T17:19:29.054Z,99132.59
2024-05-09T17:24:33.895Z,99146.59
2024-05-09T17:29:38.725Z,99151.78
2024-05-09T17:34:43.461Z,99153.69
2024-05-09T17:39:49.598Z,99152.81
2024-05-09T17:44:54.330Z,99155.53
2024-05-09T17:49:59.425Z,99159.84
2024-05-09T17:55:04.247Z,99156.34
2024-05-09T18:00:11.873Z,99158.09
2024-05-09T18:05:19.730Z,99159.06
2024-05-09T18:10:32.804Z,99153.94
2024-05-09T18:15:42.284Z,99152.09
2024-05-09T18:20:48.007Z,99167.03
2024-05-09T18:25:54.812Z,99165.34
2024-05-09T18:31:00.751Z,99166.22
2024-05-09T18:36:05.559Z,99166.25
2024-05-09T18:41:13.115Z,99176.69
2024-05-09T18:46:18.492Z,99180.16
2024-05-09T18:51:23.476Z,99191.50
2024-05-09T18:56:28.743Z,99193.28
2024-05-09T19:01:33.809Z,99194.94
2024-05-09T19:06:39.051Z,99205.47
2024-05-09T19:11:43.846Z,99204.56
2024-05-09T19:16:49.665Z,99206.34
2024-05-09T19:21:54.394Z,99207.97
2024-05-09T19:26:59.139Z,99207.16
2024-05-09T19:32:04.050Z,99203.69
2024-05-09T19:37:09.254Z,99202.81
2024-05-09T19:42:14.159Z,99214.09
2024-05-09T19:47:18.986Z,99221.03
2024-05-09T19:52:23.718Z,99227.06
2024-05-09T19:57:28.479Z,99228.75
2024-05-09T20:02:33.290Z,99235.78
2024-05-09T20:07:38.099Z,99238.34
2024-05-09T20:12:42.838Z,99241.00
2024-05-09T20:17:47.758Z,99234.91
2024-05-09T20:22:52.581Z,99229.59
2024-05-09T20:27:57.400Z,99236.50
2024-05-09T20:33:03.746Z,99240.00
2024-05-09T20:38:09.626Z,99238.34
2024-05-09T20:43:14.351Z,99238.31
2024-05-09T20:48:19.136Z,99227.84
2024-05-09T20:53:23.862Z,99236.56
2024-05-09T20:58:29.132Z,99235.69
2024-05-09T21:03:35.825Z,99231.38
2024-05-09T21:08:40.612Z,99235.72
2024-05-09T21:13:45.399Z,99231.38
2024-05-09T21:18:50.202Z,99224.44
2024-05-09T21:23:55.014Z,99221.88
2024-05-09T21:28:59.745Z,99224.47
2024-05-09T21:34:04.583Z,99223.56
2024-05-09T21:39:09.401Z,99228.78
2024-05-09T21:44:14.107Z,99235.81
2024-05-09T21:49:19.450Z,99238.47
2024-05-09T21:54:24.258Z,99224.53
2024-05-09T21:59:29.150Z,99222.81
2024-05-09T22:04:34.594Z,99225.50
2024-05-09T22:09:41.075Z,99228.16
2024-05-09T22:14:45.799Z,99230.84
2024-05-09T22:19:52.648Z,99239.63
2024-05-09T22:24:57.493Z,99246.59
2024-05-09T22:30:02.836Z,99238.75
2024-05-09T22:35:10.869Z,99237.94
2024-05-09T22:40:24.200Z,99241.41
2024-05-09T22:45:37.279Z,99236.13
2024-05-09T22:50:43.560Z,99244.91
2024-05-09T22:55:48.237Z,99225.78
2024-05-09T23:00:53.148Z,99219.75
2024-05-09T23:05:57.950Z,99214.53
2024-05-09T23:11:02.760Z,99207.59
2024-05-09T23:16:08.009Z,99190.97
2024-05-09T23:21:12.829Z,99197.13
2024-05-09T23:26:17.573Z,99199.75
2024-05-09T23:31:22.241Z,99198.94
2024-05-09T23:36:29.549Z,99201.59
2024-05-09T23:41:34.323Z,99192.00
2024-05-09T23:46:39.139Z,99192.06
2024-05-09T23:51:43.933Z,99184.22
2024-05-09T23:56:48.693Z,99192.09
